sensor_id;sensor_type;location;lat;lon;timestamp;P1;durP1;ratioP1;P2;durP2;ratioP2
25982;SDS011;13773;48.868;10.730;2024-02-14T00:02:23;6.93;;;3.60;;
25982;SDS011;13773;48.868;10.730;2024-02-14T00:04:51;6.57;;;3.90;;
25982;SDS011;13773;48.868;10.730;2024-02-14T00:07:18;7.80;;;3.93;;
25982;SDS011;13773;48.868;10.730;2024-02-14T00:09:44;5.60;;;4.00;;
25982;SDS011;13773;48.868;10.730;2024-02-14T00:12:09;7.30;;;3.83;;
25982;SDS011;13773;48.868;10.730;2024-02-14T00:14:36;6.10;;;4.00;;
25982;SDS011;13773;48.868;10.730;2024-02-14T00:17:02;7.20;;;3.67;;
25982;SDS011;13773;48.868;10.730;2024-02-14T00:19:29;10.80;;;3.77;;
25982;SDS011;13773;48.868;10.730;2024-02-14T00:21:54;4.40;;;3.37;;
25982;SDS011;13773;48.868;10.730;2024-02-14T00:24:20;5.37;;;3.33;;
25982;SDS011;13773;48.868;10.730;2024-02-14T00:26:47;4.13;;;3.17;;
25982;SDS011;13773;48.868;10.730;2024-02-14T00:29:14;7.07;;;3.40;;
25982;SDS011;13773;48.868;10.730;2024-02-14T00:31:39;5.07;;;3.40;;
25982;SDS011;13773;48.868;10.730;2024-02-14T00:34:05;4.77;;;2.87;;
25982;SDS011;13773;48.868;10.730;2024-02-14T00:36:31;5.33;;;3.03;;
25982;SDS011;13773;48.868;10.730;2024-02-14T00:38:57;4.90;;;3.43;;
25982;SDS011;13773;48.868;10.730;2024-02-14T00:41:22;3.03;;;2.73;;
25982;SDS011;13773;48.868;10.730;2024-02-14T00:43:48;5.07;;;3.70;;
25982;SDS011;13773;48.868;10.730;2024-02-14T00:46:17;6.50;;;3.40;;
25982;SDS011;13773;48.868;10.730;2024-02-14T00:48:42;4.47;;;3.13;;
25982;SDS011;13773;48.868;10.730;2024-02-14T00:51:09;4.10;;;3.13;;
25982;SDS011;13773;48.868;10.730;2024-02-14T00:53:35;5.70;;;3.43;;
25982;SDS011;13773;48.868;10.730;2024-02-14T00:56:01;4.47;;;3.67;;
25982;SDS011;13773;48.868;10.730;2024-02-14T00:58:27;5.30;;;3.40;;
25982;SDS011;13773;48.868;10.730;2024-02-14T01:00:53;4.90;;;3.43;;
25982;SDS011;13773;48.868;10.730;2024-02-14T01:03:19;5.57;;;3.80;;
25982;SDS011;13773;48.868;10.730;2024-02-14T01:05:44;4.10;;;3.50;;
25982;SDS011;13773;48.868;10.730;2024-02-14T01:08:10;6.67;;;3.93;;
25982;SDS011;13773;48.868;10.730;2024-02-14T01:10:36;7.57;;;4.43;;
25982;SDS011;13773;48.868;10.730;2024-02-14T01:13:01;6.43;;;4.40;;
25982;SDS011;13773;48.868;10.730;2024-02-14T01:15:27;6.20;;;3.97;;
25982;SDS011;13773;48.868;10.730;2024-02-14T01:17:53;5.83;;;4.13;;
25982;SDS011;13773;48.868;10.730;2024-02-14T01:20:18;6.60;;;4.33;;
25982;SDS011;13773;48.868;10.730;2024-02-14T01:22:45;6.47;;;4.10;;
25982;SDS011;13773;48.868;10.730;2024-02-14T01:25:11;5.10;;;4.07;;
25982;SDS011;13773;48.868;10.730;2024-02-14T01:27:37;7.13;;;4.13;;
25982;SDS011;13773;48.868;10.730;2024-02-14T01:30:03;9.83;;;3.90;;
25982;SDS011;13773;48.868;10.730;2024-02-14T01:32:30;6.73;;;4.90;;
25982;SDS011;13773;48.868;10.730;2024-02-14T01:34:56;5.47;;;4.57;;
25982;SDS011;13773;48.868;10.730;2024-02-14T01:37:22;8.17;;;4.80;;
25982;SDS011;13773;48.868;10.730;2024-02-14T01:39:48;6.57;;;4.70;;
25982;SDS011;13773;48.868;10.730;2024-02-14T01:42:14;9.60;;;5.30;;
25982;SDS011;13773;48.868;10.730;2024-02-14T01:44:39;8.27;;;5.13;;
25982;SDS011;13773;48.868;10.730;2024-02-14T01:47:05;7.73;;;5.17;;
25982;SDS011;13773;48.868;10.730;2024-02-14T01:49:32;7.77;;;5.37;;
25982;SDS011;13773;48.868;10.730;2024-02-14T01:51:59;9.27;;;5.47;;
25982;SDS011;13773;48.868;10.730;2024-02-14T01:54:28;7.93;;;5.57;;
25982;SDS011;13773;48.868;10.730;2024-02-14T01:56:55;8.30;;;5.63;;
25982;SDS011;13773;48.868;10.730;2024-02-14T01:59:23;8.10;;;5.03;;
25982;SDS011;13773;48.868;10.730;2024-02-14T02:01:49;10.40;;;6.23;;
25982;SDS011;13773;48.868;10.730;2024-02-14T02:04:17;8.13;;;5.90;;
25982;SDS011;13773;48.868;10.730;2024-02-14T02:06:43;10.57;;;6.60;;
25982;SDS011;13773;48.868;10.730;2024-02-14T02:09:09;10.37;;;6.07;;
25982;SDS011;13773;48.868;10.730;2024-02-14T02:11:50;13.70;;;6.77;;
25982;SDS011;13773;48.868;10.730;2024-02-14T02:14:19;7.70;;;5.87;;
25982;SDS011;13773;48.868;10.730;2024-02-14T02:16:46;10.80;;;6.50;;
25982;SDS011;13773;48.868;10.730;2024-02-14T02:19:12;8.97;;;6.47;;
25982;SDS011;13773;48.868;10.730;2024-02-14T02:21:38;8.63;;;6.40;;
25982;SDS011;13773;48.868;10.730;2024-02-14T02:24:04;8.20;;;7.10;;
25982;SDS011;13773;48.868;10.730;2024-02-14T02:26:30;11.47;;;6.73;;
25982;SDS011;13773;48.868;10.730;2024-02-14T02:28:56;10.67;;;7.10;;
25982;SDS011;13773;48.868;10.730;2024-02-14T02:31:22;11.80;;;7.53;;
25982;SDS011;13773;48.868;10.730;2024-02-14T02:33:47;10.53;;;7.23;;
25982;SDS011;13773;48.868;10.730;2024-02-14T02:36:14;14.00;;;7.83;;
25982;SDS011;13773;48.868;10.730;2024-02-14T02:38:41;10.23;;;7.13;;
25982;SDS011;13773;48.868;10.730;2024-02-14T02:41:06;11.63;;;7.23;;
25982;SDS011;13773;48.868;10.730;2024-02-14T02:43:33;13.77;;;8.07;;
25982;SDS011;13773;48.868;10.730;2024-02-14T02:45:59;12.43;;;8.10;;
25982;SDS011;13773;48.868;10.730;2024-02-14T02:48:25;13.03;;;8.13;;
25982;SDS011;13773;48.868;10.730;2024-02-14T02:50:51;10.87;;;8.17;;
25982;SDS011;13773;48.868;10.730;2024-02-14T02:53:17;13.07;;;8.30;;
25982;SDS011;13773;48.868;10.730;2024-02-14T02:55:43;11.13;;;8.23;;
25982;SDS011;13773;48.868;10.730;2024-02-14T02:58:09;12.63;;;8.77;;
25982;SDS011;13773;48.868;10.730;2024-02-14T03:00:35;12.57;;;9.23;;
25982;SDS011;13773;48.868;10.730;2024-02-14T03:03:01;10.37;;;7.50;;
25982;SDS011;13773;48.868;10.730;2024-02-14T03:05:33;15.53;;;8.97;;
25982;SDS011;13773;48.868;10.730;2024-02-14T03:07:59;12.57;;;8.50;;
25982;SDS011;13773;48.868;10.730;2024-02-14T03:10:25;11.43;;;8.80;;
25982;SDS011;13773;48.868;10.730;2024-02-14T03:12:51;10.67;;;7.77;;
25982;SDS011;13773;48.868;10.730;2024-02-14T03:15:17;12.83;;;8.87;;
25982;SDS011;13773;48.868;10.730;2024-02-14T03:17:45;12.97;;;8.43;;
25982;SDS011;13773;48.868;10.730;2024-02-14T03:20:11;16.13;;;8.90;;
25982;SDS011;13773;48.868;10.730;2024-02-14T03:22:40;15.53;;;7.37;;
25982;SDS011;13773;48.868;10.730;2024-02-14T03:25:19;12.33;;;8.33;;
25982;SDS011;13773;48.868;10.730;2024-02-14T03:27:45;15.37;;;8.43;;
25982;SDS011;13773;48.868;10.730;2024-02-14T03:30:14;13.70;;;8.43;;
25982;SDS011;13773;48.868;10.730;2024-02-14T03:32:41;12.80;;;9.33;;
25982;SDS011;13773;48.868;10.730;2024-02-14T03:35:10;12.20;;;8.47;;
25982;SDS011;13773;48.868;10.730;2024-02-14T03:37:38;14.83;;;9.57;;
25982;SDS011;13773;48.868;10.730;2024-02-14T03:40:04;14.17;;;9.60;;
25982;SDS011;13773;48.868;10.730;2024-02-14T03:42:32;11.97;;;8.40;;
25982;SDS011;13773;48.868;10.730;2024-02-14T03:44:58;12.17;;;8.93;;
25982;SDS011;13773;48.868;10.730;2024-02-14T03:47:33;12.07;;;9.07;;
25982;SDS011;13773;48.868;10.730;2024-02-14T03:49:59;10.97;;;8.60;;
25982;SDS011;13773;48.868;10.730;2024-02-14T03:52:27;12.90;;;8.77;;
25982;SDS011;13773;48.868;10.730;2024-02-14T03:54:53;12.93;;;8.50;;
25982;SDS011;13773;48.868;10.730;2024-02-14T03:57:19;11.47;;;8.33;;
25982;SDS011;13773;48.868;10.730;2024-02-14T03:59:44;13.13;;;9.03;;
25982;SDS011;13773;48.868;10.730;2024-02-14T04:02:11;13.67;;;9.03;;
25982;SDS011;13773;48.868;10.730;2024-02-14T04:04:38;13.67;;;9.10;;
25982;SDS011;13773;48.868;10.730;2024-02-14T04:07:06;11.43;;;8.30;;
25982;SDS011;13773;48.868;10.730;2024-02-14T04:09:35;13.00;;;8.03;;
25982;SDS011;13773;48.868;10.730;2024-02-14T04:12:01;12.13;;;8.53;;
25982;SDS011;13773;48.868;10.730;2024-02-14T04:14:27;13.93;;;8.40;;
25982;SDS011;13773;48.868;10.730;2024-02-14T04:16:52;11.63;;;8.57;;
25982;SDS011;13773;48.868;10.730;2024-02-14T04:19:18;12.43;;;7.77;;
25982;SDS011;13773;48.868;10.730;2024-02-14T04:21:44;13.73;;;8.17;;
25982;SDS011;13773;48.868;10.730;2024-02-14T04:24:10;9.37;;;7.90;;
25982;SDS011;13773;48.868;10.730;2024-02-14T04:26:36;11.93;;;7.67;;
25982;SDS011;13773;48.868;10.730;2024-02-14T04:29:02;9.27;;;7.67;;
25982;SDS011;13773;48.868;10.730;2024-02-14T04:31:27;10.47;;;8.07;;
25982;SDS011;13773;48.868;10.730;2024-02-14T04:33:55;10.97;;;7.40;;
25982;SDS011;13773;48.868;10.730;2024-02-14T04:36:21;11.03;;;7.60;;
25982;SDS011;13773;48.868;10.730;2024-02-14T04:38:49;11.33;;;7.47;;
25982;SDS011;13773;48.868;10.730;2024-02-14T04:41:16;12.57;;;7.63;;
25982;SDS011;13773;48.868;10.730;2024-02-14T04:43:42;8.97;;;7.30;;
25982;SDS011;13773;48.868;10.730;2024-02-14T04:46:08;11.30;;;7.40;;
25982;SDS011;13773;48.868;10.730;2024-02-14T04:48:37;10.80;;;6.70;;
25982;SDS011;13773;48.868;10.730;2024-02-14T04:51:03;10.83;;;7.27;;
25982;SDS011;13773;48.868;10.730;2024-02-14T04:53:30;8.27;;;6.33;;
25982;SDS011;13773;48.868;10.730;2024-02-14T04:55:56;8.80;;;6.97;;
25982;SDS011;13773;48.868;10.730;2024-02-14T04:58:21;10.10;;;6.40;;
25982;SDS011;13773;48.868;10.730;2024-02-14T05:00:47;10.23;;;5.97;;
25982;SDS011;13773;48.868;10.730;2024-02-14T05:03:13;9.87;;;6.03;;
25982;SDS011;13773;48.868;10.730;2024-02-14T05:05:40;13.33;;;6.47;;
25982;SDS011;13773;48.868;10.730;2024-02-14T05:08:06;13.00;;;6.43;;
25982;SDS011;13773;48.868;10.730;2024-02-14T05:10:32;10.23;;;5.93;;
25982;SDS011;13773;48.868;10.730;2024-02-14T05:12:57;9.00;;;6.30;;
25982;SDS011;13773;48.868;10.730;2024-02-14T05:15:23;6.57;;;5.23;;
25982;SDS011;13773;48.868;10.730;2024-02-14T05:17:49;9.10;;;5.50;;
25982;SDS011;13773;48.868;10.730;2024-02-14T05:20:15;8.97;;;5.77;;
25982;SDS011;13773;48.868;10.730;2024-02-14T05:22:41;8.00;;;5.57;;
25982;SDS011;13773;48.868;10.730;2024-02-14T05:25:07;10.00;;;6.27;;
25982;SDS011;13773;48.868;10.730;2024-02-14T05:27:34;11.23;;;5.60;;
25982;SDS011;13773;48.868;10.730;2024-02-14T05:30:04;10.50;;;5.53;;
25982;SDS011;13773;48.868;10.730;2024-02-14T05:32:31;8.23;;;5.30;;
25982;SDS011;13773;48.868;10.730;2024-02-14T05:34:57;7.80;;;5.30;;
25982;SDS011;13773;48.868;10.730;2024-02-14T05:37:23;10.57;;;5.00;;
25982;SDS011;13773;48.868;10.730;2024-02-14T05:39:49;7.77;;;4.60;;
25982;SDS011;13773;48.868;10.730;2024-02-14T05:42:15;8.33;;;4.80;;
25982;SDS011;13773;48.868;10.730;2024-02-14T05:44:41;9.43;;;5.17;;
25982;SDS011;13773;48.868;10.730;2024-02-14T05:47:08;8.17;;;5.90;;
25982;SDS011;13773;48.868;10.730;2024-02-14T05:49:35;8.63;;;5.53;;
25982;SDS011;13773;48.868;10.730;2024-02-14T05:52:00;6.93;;;4.70;;
25982;SDS011;13773;48.868;10.730;2024-02-14T05:54:26;8.73;;;4.80;;
25982;SDS011;13773;48.868;10.730;2024-02-14T05:56:52;9.73;;;5.40;;
25982;SDS011;13773;48.868;10.730;2024-02-14T05:59:17;8.27;;;4.80;;
25982;SDS011;13773;48.868;10.730;2024-02-14T06:01:43;7.07;;;4.70;;
25982;SDS011;13773;48.868;10.730;2024-02-14T06:04:09;7.57;;;4.90;;
25982;SDS011;13773;48.868;10.730;2024-02-14T06:06:35;5.63;;;4.50;;
25982;SDS011;13773;48.868;10.730;2024-02-14T06:09:00;7.40;;;4.67;;
25982;SDS011;13773;48.868;10.730;2024-02-14T06:11:26;8.53;;;5.03;;
25982;SDS011;13773;48.868;10.730;2024-02-14T06:13:52;7.97;;;4.77;;
25982;SDS011;13773;48.868;10.730;2024-02-14T06:16:18;10.13;;;5.50;;
25982;SDS011;13773;48.868;10.730;2024-02-14T06:18:44;5.93;;;4.53;;
25982;SDS011;13773;48.868;10.730;2024-02-14T06:21:10;7.53;;;4.97;;
25982;SDS011;13773;48.868;10.730;2024-02-14T06:23:36;7.70;;;5.77;;
25982;SDS011;13773;48.868;10.730;2024-02-14T06:26:02;9.77;;;5.17;;
25982;SDS011;13773;48.868;10.730;2024-02-14T06:28:29;9.60;;;4.77;;
25982;SDS011;13773;48.868;10.730;2024-02-14T06:30:56;8.67;;;4.97;;
25982;SDS011;13773;48.868;10.730;2024-02-14T06:33:21;8.80;;;5.23;;
25982;SDS011;13773;48.868;10.730;2024-02-14T06:35:47;8.50;;;5.23;;
25982;SDS011;13773;48.868;10.730;2024-02-14T06:38:13;8.93;;;4.87;;
25982;SDS011;13773;48.868;10.730;2024-02-14T06:40:39;7.63;;;5.40;;
25982;SDS011;13773;48.868;10.730;2024-02-14T06:43:05;8.17;;;5.27;;
25982;SDS011;13773;48.868;10.730;2024-02-14T06:45:31;6.53;;;4.50;;
25982;SDS011;13773;48.868;10.730;2024-02-14T06:47:57;7.23;;;4.97;;
25982;SDS011;13773;48.868;10.730;2024-02-14T06:50:23;5.60;;;4.47;;
25982;SDS011;13773;48.868;10.730;2024-02-14T06:52:52;7.73;;;4.10;;
25982;SDS011;13773;48.868;10.730;2024-02-14T06:55:18;10.67;;;4.93;;
25982;SDS011;13773;48.868;10.730;2024-02-14T06:57:44;6.20;;;4.33;;
25982;SDS011;13773;48.868;10.730;2024-02-14T07:00:10;8.10;;;5.20;;
25982;SDS011;13773;48.868;10.730;2024-02-14T07:02:36;6.90;;;4.80;;
25982;SDS011;13773;48.868;10.730;2024-02-14T07:05:01;6.77;;;4.80;;
25982;SDS011;13773;48.868;10.730;2024-02-14T07:07:27;8.60;;;4.80;;
25982;SDS011;13773;48.868;10.730;2024-02-14T07:09:53;9.53;;;5.23;;
25982;SDS011;13773;48.868;10.730;2024-02-14T07:12:19;6.43;;;4.30;;
25982;SDS011;13773;48.868;10.730;2024-02-14T07:14:46;9.87;;;4.57;;
25982;SDS011;13773;48.868;10.730;2024-02-14T07:17:12;9.40;;;4.90;;
25982;SDS011;13773;48.868;10.730;2024-02-14T07:19:37;10.17;;;4.93;;
25982;SDS011;13773;48.868;10.730;2024-02-14T07:22:04;11.23;;;4.80;;
25982;SDS011;13773;48.868;10.730;2024-02-14T07:24:29;7.20;;;3.63;;
25982;SDS011;13773;48.868;10.730;2024-02-14T07:26:55;7.00;;;4.80;;
25982;SDS011;13773;48.868;10.730;2024-02-14T07:29:22;9.73;;;4.30;;
25982;SDS011;13773;48.868;10.730;2024-02-14T07:31:47;8.00;;;4.20;;
25982;SDS011;13773;48.868;10.730;2024-02-14T07:34:13;6.63;;;4.60;;
25982;SDS011;13773;48.868;10.730;2024-02-14T07:36:39;5.33;;;4.00;;
25982;SDS011;13773;48.868;10.730;2024-02-14T07:39:06;7.53;;;4.37;;
25982;SDS011;13773;48.868;10.730;2024-02-14T07:41:32;8.13;;;4.07;;
25982;SDS011;13773;48.868;10.730;2024-02-14T07:43:57;6.70;;;4.00;;
25982;SDS011;13773;48.868;10.730;2024-02-14T07:46:23;7.33;;;4.20;;
25982;SDS011;13773;48.868;10.730;2024-02-14T07:48:51;8.47;;;4.80;;
25982;SDS011;13773;48.868;10.730;2024-02-14T07:51:18;13.13;;;4.73;;
25982;SDS011;13773;48.868;10.730;2024-02-14T07:53:44;7.70;;;4.57;;
25982;SDS011;13773;48.868;10.730;2024-02-14T07:56:10;7.67;;;4.67;;
25982;SDS011;13773;48.868;10.730;2024-02-14T07:58:36;9.90;;;4.00;;
25982;SDS011;13773;48.868;10.730;2024-02-14T08:01:01;7.63;;;4.17;;
25982;SDS011;13773;48.868;10.730;2024-02-14T08:03:29;6.73;;;4.63;;
25982;SDS011;13773;48.868;10.730;2024-02-14T08:05:55;6.83;;;4.47;;
25982;SDS011;13773;48.868;10.730;2024-02-14T08:08:20;5.77;;;4.47;;
25982;SDS011;13773;48.868;10.730;2024-02-14T08:10:46;9.10;;;4.53;;
25982;SDS011;13773;48.868;10.730;2024-02-14T08:13:12;8.30;;;4.67;;
25982;SDS011;13773;48.868;10.730;2024-02-14T08:15:40;7.33;;;4.10;;
25982;SDS011;13773;48.868;10.730;2024-02-14T08:18:06;5.33;;;4.13;;
25982;SDS011;13773;48.868;10.730;2024-02-14T08:20:32;7.53;;;4.37;;
25982;SDS011;13773;48.868;10.730;2024-02-14T08:22:58;5.67;;;4.03;;
25982;SDS011;13773;48.868;10.730;2024-02-14T08:25:24;5.47;;;4.20;;
25982;SDS011;13773;48.868;10.730;2024-02-14T08:27:50;7.27;;;3.73;;
25982;SDS011;13773;48.868;10.730;2024-02-14T08:30:16;5.23;;;3.73;;
25982;SDS011;13773;48.868;10.730;2024-02-14T08:32:42;7.07;;;4.20;;
25982;SDS011;13773;48.868;10.730;2024-02-14T08:35:08;6.93;;;3.90;;
25982;SDS011;13773;48.868;10.730;2024-02-14T08:37:35;5.37;;;3.17;;
25982;SDS011;13773;48.868;10.730;2024-02-14T08:40:02;7.17;;;4.40;;
25982;SDS011;13773;48.868;10.730;2024-02-14T08:42:31;6.73;;;4.27;;
25982;SDS011;13773;48.868;10.730;2024-02-14T08:44:58;5.37;;;3.63;;
25982;SDS011;13773;48.868;10.730;2024-02-14T08:47:23;6.00;;;3.77;;
25982;SDS011;13773;48.868;10.730;2024-02-14T08:49:49;4.70;;;3.93;;
25982;SDS011;13773;48.868;10.730;2024-02-14T08:52:14;6.20;;;3.70;;
25982;SDS011;13773;48.868;10.730;2024-02-14T08:54:40;6.10;;;3.80;;
25982;SDS011;13773;48.868;10.730;2024-02-14T08:57:06;6.50;;;4.20;;
25982;SDS011;13773;48.868;10.730;2024-02-14T08:59:32;7.63;;;4.13;;
25982;SDS011;13773;48.868;10.730;2024-02-14T09:01:57;4.90;;;3.53;;
25982;SDS011;13773;48.868;10.730;2024-02-14T09:04:23;8.63;;;4.13;;
25982;SDS011;13773;48.868;10.730;2024-02-14T09:06:49;5.67;;;3.30;;
25982;SDS011;13773;48.868;10.730;2024-02-14T09:09:14;5.37;;;3.77;;
25982;SDS011;13773;48.868;10.730;2024-02-14T09:11:40;4.83;;;3.70;;
25982;SDS011;13773;48.868;10.730;2024-02-14T09:14:06;5.33;;;3.47;;
25982;SDS011;13773;48.868;10.730;2024-02-14T09:16:32;7.80;;;3.90;;
25982;SDS011;13773;48.868;10.730;2024-02-14T09:18:59;8.47;;;4.00;;
25982;SDS011;13773;48.868;10.730;2024-02-14T09:21:26;5.43;;;3.30;;
25982;SDS011;13773;48.868;10.730;2024-02-14T09:23:52;6.07;;;3.27;;
25982;SDS011;13773;48.868;10.730;2024-02-14T09:26:18;4.17;;;3.00;;
25982;SDS011;13773;48.868;10.730;2024-02-14T09:28:44;7.00;;;3.47;;
25982;SDS011;13773;48.868;10.730;2024-02-14T09:31:09;5.70;;;3.00;;
25982;SDS011;13773;48.868;10.730;2024-02-14T09:33:37;6.13;;;3.10;;
25982;SDS011;13773;48.868;10.730;2024-02-14T09:36:03;5.83;;;3.17;;
25982;SDS011;13773;48.868;10.730;2024-02-14T09:38:32;4.93;;;3.03;;
25982;SDS011;13773;48.868;10.730;2024-02-14T09:41:04;5.97;;;3.07;;
25982;SDS011;13773;48.868;10.730;2024-02-14T09:43:38;5.80;;;3.50;;
25982;SDS011;13773;48.868;10.730;2024-02-14T09:46:08;4.53;;;3.33;;
25982;SDS011;13773;48.868;10.730;2024-02-14T09:48:34;4.03;;;3.03;;
25982;SDS011;13773;48.868;10.730;2024-02-14T09:51:02;6.27;;;2.90;;
25982;SDS011;13773;48.868;10.730;2024-02-14T09:53:28;4.90;;;2.90;;
25982;SDS011;13773;48.868;10.730;2024-02-14T09:55:55;4.97;;;2.90;;
25982;SDS011;13773;48.868;10.730;2024-02-14T09:58:22;5.77;;;3.07;;
25982;SDS011;13773;48.868;10.730;2024-02-14T10:00:52;5.63;;;3.03;;
25982;SDS011;13773;48.868;10.730;2024-02-14T10:03:17;6.40;;;3.53;;
25982;SDS011;13773;48.868;10.730;2024-02-14T10:05:43;4.17;;;2.97;;
25982;SDS011;13773;48.868;10.730;2024-02-14T10:08:09;6.20;;;2.83;;
25982;SDS011;13773;48.868;10.730;2024-02-14T10:10:37;4.93;;;2.93;;
25982;SDS011;13773;48.868;10.730;2024-02-14T10:13:06;4.93;;;2.90;;
25982;SDS011;13773;48.868;10.730;2024-02-14T10:15:32;3.73;;;2.80;;
25982;SDS011;13773;48.868;10.730;2024-02-14T10:17:58;4.23;;;2.77;;
25982;SDS011;13773;48.868;10.730;2024-02-14T10:20:25;4.30;;;2.83;;
25982;SDS011;13773;48.868;10.730;2024-02-14T10:22:51;4.43;;;2.80;;
25982;SDS011;13773;48.868;10.730;2024-02-14T10:25:25;6.17;;;3.07;;
25982;SDS011;13773;48.868;10.730;2024-02-14T10:27:51;5.83;;;2.90;;
25982;SDS011;13773;48.868;10.730;2024-02-14T10:30:16;5.73;;;3.10;;
25982;SDS011;13773;48.868;10.730;2024-02-14T10:32:42;4.50;;;3.23;;
25982;SDS011;13773;48.868;10.730;2024-02-14T10:35:13;4.17;;;2.47;;
25982;SDS011;13773;48.868;10.730;2024-02-14T10:37:40;6.03;;;2.70;;
25982;SDS011;13773;48.868;10.730;2024-02-14T10:40:06;4.43;;;2.63;;
25982;SDS011;13773;48.868;10.730;2024-02-14T10:42:34;11.27;;;4.13;;
25982;SDS011;13773;48.868;10.730;2024-02-14T10:45:00;10.03;;;4.73;;
25982;SDS011;13773;48.868;10.730;2024-02-14T10:47:30;6.83;;;3.03;;
25982;SDS011;13773;48.868;10.730;2024-02-14T10:50:06;4.17;;;2.50;;
25982;SDS011;13773;48.868;10.730;2024-02-14T10:52:34;5.20;;;2.60;;
25982;SDS011;13773;48.868;10.730;2024-02-14T10:55:02;7.03;;;3.37;;
25982;SDS011;13773;48.868;10.730;2024-02-14T10:57:29;7.07;;;3.30;;
25982;SDS011;13773;48.868;10.730;2024-02-14T10:59:56;4.70;;;2.70;;
25982;SDS011;13773;48.868;10.730;2024-02-14T11:02:34;4.53;;;2.87;;
25982;SDS011;13773;48.868;10.730;2024-02-14T11:05:01;5.03;;;3.50;;
25982;SDS011;13773;48.868;10.730;2024-02-14T11:07:27;4.37;;;2.60;;
25982;SDS011;13773;48.868;10.730;2024-02-14T11:10:27;4.23;;;2.67;;
25982;SDS011;13773;48.868;10.730;2024-02-14T11:12:47;3.53;;;2.30;;
25982;SDS011;13773;48.868;10.730;2024-02-14T11:15:16;6.50;;;2.63;;
25982;SDS011;13773;48.868;10.730;2024-02-14T11:17:44;4.63;;;2.80;;
25982;SDS011;13773;48.868;10.730;2024-02-14T11:20:17;5.87;;;2.90;;
25982;SDS011;13773;48.868;10.730;2024-02-14T11:22:57;4.07;;;2.50;;
25982;SDS011;13773;48.868;10.730;2024-02-14T11:25:29;5.03;;;2.77;;
25982;SDS011;13773;48.868;10.730;2024-02-14T11:27:56;4.50;;;3.40;;
25982;SDS011;13773;48.868;10.730;2024-02-14T11:30:34;4.33;;;2.57;;
25982;SDS011;13773;48.868;10.730;2024-02-14T11:35:42;3.10;;;1.90;;
25982;SDS011;13773;48.868;10.730;2024-02-14T11:38:08;2.93;;;2.23;;
25982;SDS011;13773;48.868;10.730;2024-02-14T11:40:37;3.13;;;2.20;;
25982;SDS011;13773;48.868;10.730;2024-02-14T11:43:12;5.23;;;2.37;;
25982;SDS011;13773;48.868;10.730;2024-02-14T11:45:48;2.90;;;2.23;;
25982;SDS011;13773;48.868;10.730;2024-02-14T11:48:18;2.40;;;1.83;;
25982;SDS011;13773;48.868;10.730;2024-02-14T11:50:48;3.53;;;1.90;;
25982;SDS011;13773;48.868;10.730;2024-02-14T11:53:14;4.03;;;2.37;;
25982;SDS011;13773;48.868;10.730;2024-02-14T11:55:44;2.83;;;1.70;;
25982;SDS011;13773;48.868;10.730;2024-02-14T11:58:12;4.97;;;2.37;;
25982;SDS011;13773;48.868;10.730;2024-02-14T12:00:39;4.70;;;2.63;;
25982;SDS011;13773;48.868;10.730;2024-02-14T12:03:11;2.53;;;1.80;;
25982;SDS011;13773;48.868;10.730;2024-02-14T12:05:41;6.40;;;1.90;;
25982;SDS011;13773;48.868;10.730;2024-02-14T12:08:09;4.10;;;2.00;;
25982;SDS011;13773;48.868;10.730;2024-02-14T12:10:35;3.03;;;2.00;;
25982;SDS011;13773;48.868;10.730;2024-02-14T12:13:06;3.07;;;1.83;;
25982;SDS011;13773;48.868;10.730;2024-02-14T12:15:37;3.13;;;2.00;;
25982;SDS011;13773;48.868;10.730;2024-02-14T12:18:03;4.30;;;2.17;;
25982;SDS011;13773;48.868;10.730;2024-02-14T12:20:29;2.87;;;2.00;;
25982;SDS011;13773;48.868;10.730;2024-02-14T12:22:55;3.10;;;2.13;;
25982;SDS011;13773;48.868;10.730;2024-02-14T12:25:20;5.87;;;2.30;;
25982;SDS011;13773;48.868;10.730;2024-02-14T12:27:50;4.90;;;2.47;;
25982;SDS011;13773;48.868;10.730;2024-02-14T12:30:17;3.97;;;2.13;;
25982;SDS011;13773;48.868;10.730;2024-02-14T12:32:43;3.40;;;2.00;;
25982;SDS011;13773;48.868;10.730;2024-02-14T12:35:10;5.53;;;2.40;;
25982;SDS011;13773;48.868;10.730;2024-02-14T12:37:35;5.13;;;2.43;;
25982;SDS011;13773;48.868;10.730;2024-02-14T12:40:01;3.93;;;2.30;;
25982;SDS011;13773;48.868;10.730;2024-02-14T12:42:27;2.87;;;2.10;;
25982;SDS011;13773;48.868;10.730;2024-02-14T12:44:56;4.47;;;2.40;;
25982;SDS011;13773;48.868;10.730;2024-02-14T12:47:21;3.90;;;2.27;;
25982;SDS011;13773;48.868;10.730;2024-02-14T12:49:48;4.23;;;2.73;;
25982;SDS011;13773;48.868;10.730;2024-02-14T12:52:14;2.90;;;2.00;;
25982;SDS011;13773;48.868;10.730;2024-02-14T12:54:40;3.87;;;2.20;;
25982;SDS011;13773;48.868;10.730;2024-02-14T12:57:06;6.10;;;2.47;;
25982;SDS011;13773;48.868;10.730;2024-02-14T12:59:31;6.47;;;2.40;;
25982;SDS011;13773;48.868;10.730;2024-02-14T13:01:57;4.10;;;2.00;;
25982;SDS011;13773;48.868;10.730;2024-02-14T13:04:23;3.27;;;1.77;;
25982;SDS011;13773;48.868;10.730;2024-02-14T13:06:49;2.77;;;1.90;;
25982;SDS011;13773;48.868;10.730;2024-02-14T13:09:15;3.47;;;1.70;;
25982;SDS011;13773;48.868;10.730;2024-02-14T13:11:41;3.40;;;1.83;;
25982;SDS011;13773;48.868;10.730;2024-02-14T13:14:07;5.43;;;2.17;;
25982;SDS011;13773;48.868;10.730;2024-02-14T13:16:34;4.40;;;1.90;;
25982;SDS011;13773;48.868;10.730;2024-02-14T13:18:59;8.20;;;2.67;;
25982;SDS011;13773;48.868;10.730;2024-02-14T13:21:25;4.30;;;1.87;;
25982;SDS011;13773;48.868;10.730;2024-02-14T13:23:51;3.00;;;2.10;;
25982;SDS011;13773;48.868;10.730;2024-02-14T13:26:16;4.00;;;2.37;;
25982;SDS011;13773;48.868;10.730;2024-02-14T13:28:42;6.73;;;2.53;;
25982;SDS011;13773;48.868;10.730;2024-02-14T13:31:08;6.83;;;2.67;;
25982;SDS011;13773;48.868;10.730;2024-02-14T13:33:35;6.47;;;2.70;;
25982;SDS011;13773;48.868;10.730;2024-02-14T13:36:01;3.93;;;2.80;;
25982;SDS011;13773;48.868;10.730;2024-02-14T13:38:29;4.07;;;2.40;;
25982;SDS011;13773;48.868;10.730;2024-02-14T13:40:55;5.53;;;2.40;;
25982;SDS011;13773;48.868;10.730;2024-02-14T13:43:21;4.57;;;2.70;;
25982;SDS011;13773;48.868;10.730;2024-02-14T13:45:47;3.90;;;2.40;;
25982;SDS011;13773;48.868;10.730;2024-02-14T13:48:14;3.60;;;1.97;;
25982;SDS011;13773;48.868;10.730;2024-02-14T13:50:40;3.13;;;2.20;;
25982;SDS011;13773;48.868;10.730;2024-02-14T13:53:06;6.10;;;2.47;;
25982;SDS011;13773;48.868;10.730;2024-02-14T13:55:32;4.00;;;2.20;;
25982;SDS011;13773;48.868;10.730;2024-02-14T13:57:58;5.17;;;2.93;;
25982;SDS011;13773;48.868;10.730;2024-02-14T14:00:23;5.23;;;2.33;;
25982;SDS011;13773;48.868;10.730;2024-02-14T14:02:49;5.50;;;3.03;;
25982;SDS011;13773;48.868;10.730;2024-02-14T14:05:15;5.30;;;3.23;;
25982;SDS011;13773;48.868;10.730;2024-02-14T14:07:41;4.63;;;2.67;;
25982;SDS011;13773;48.868;10.730;2024-02-14T14:10:08;2.47;;;1.80;;
25982;SDS011;13773;48.868;10.730;2024-02-14T14:12:34;2.83;;;1.97;;
25982;SDS011;13773;48.868;10.730;2024-02-14T14:15:00;4.13;;;2.73;;
25982;SDS011;13773;48.868;10.730;2024-02-14T14:17:28;4.73;;;2.30;;
25982;SDS011;13773;48.868;10.730;2024-02-14T14:19:53;2.17;;;1.50;;
25982;SDS011;13773;48.868;10.730;2024-02-14T14:22:19;1.60;;;1.50;;
25982;SDS011;13773;48.868;10.730;2024-02-14T14:24:46;2.93;;;1.70;;
25982;SDS011;13773;48.868;10.730;2024-02-14T14:27:12;2.30;;;1.30;;
25982;SDS011;13773;48.868;10.730;2024-02-14T14:29:41;2.17;;;1.40;;
25982;SDS011;13773;48.868;10.730;2024-02-14T14:32:07;2.63;;;1.10;;